Cedar Grove, NJ (07009)

4:15 PM EDT on August 29, 2016 (GMT -0400)
Crestmont Road | | Change Station
Active Advisory: Special Statement

Elev 564 ft 40.84 °N, 74.22 °W | Updated 0 second ago

Clear
Clear
85.0 °F
Feels Like 86 °F
N
3.0
Wind Variable Wind from NNW
Gusts 6.0 mph

Today
High -- | Low -- °F
--% Chance of Precip.
Yesterday
High -- | Low -- °F
Precip. -- in
Pressure 30.09 in
Visibility 10.0 miles
Clouds Clear
Heat Index 86 °F
Dew Point 63 °F
Humidity 48%
Rainfall 0.00 in
Snow Depth Not available.
6:21 AM 7:33 PM
Waning Crescent, 7% visible
METAR KCDW 291953Z 33007KT 300V010 10SM CLR 31/16 A3008 RMK AO2 SLP190 T03110156
Pressure 30.09 in
Visibility 10.0 miles
Clouds Clear
Heat Index 86 °F
Dew Point 63 °F
Humidity 48%
Rainfall 0.00 in
Snow Depth Not available.
6:21 AM 7:33 PM
Waning Crescent, 7% visible
METAR KCDW 291953Z 33007KT 300V010 10SM CLR 31/16 A3008 RMK AO2 SLP190 T03110156

10-Day Weather Forecast

Almanac

Astronomy

Aug. 29, 2016 Rise Set
Actual Time
Civil Twilight
Nautical Twilight
Astronomical Twilight
Moon
Length of Visible Light
Length of Day
Tomorrow will be .
, % of the Moon is Illuminated

Today's Extremes

State Highs State Lows

Community

WunderPhotos

Upload Photos

1,935,647 photos uploaded!

WunderBlog® & News

Nearby

Air Quality

  Air Quality AQ Index Pollutant
Not available.

Snow Depth

Station Depth Elevation

Earthquake Activity

City Distance Mag. Time & Date
Minimum magnitude displayed is 2.5.

Coastal Water Temperatures

Place Temperature

Stations

Nearby Weather Stations

Station Location Temp. Windchill Dew Point Humidity Wind Precip. Elev Updated Type
                   

Watches & Warnings

Special Statement
Issued: 3:43 PM EDT Aug. 29, 2016 – National Weather Service

A hot and quickly drying air mass will combine with gusty
northwest winds to create conditions more conducive for fire
spread late this afternoon until close to sunset across the New
York City metropolitan area... western Long Island... and southern
Connecticut.

Relative humidities decreasing to 25 to 35 percent during this
time... while winds gust to 20 to 25 mph... would likely aid fire
spread if ignition occurs.

Stay tuned to NOAA all hazards weather radio or visit our web
site at weather.Gov/NYC for further details and updates.


343 PM EDT Mon Aug 29 2016

A hot and quickly drying air mass will combine with gusty
northwest winds to create conditions more conducive for fire
spread late this afternoon until close to sunset across the New
York City metropolitan area... western Long Island... and southern
Connecticut.

Relative humidities decreasing to 25 to 35 percent during this
time... while winds gust to 20 to 25 mph... would likely aid fire
spread if ignition occurs.

Stay tuned to NOAA all hazards weather radio or visit our web
site at weather.Gov/NYC for further details and updates.